sensor_id;sensor_type;location;lat;lon;timestamp;noise_LAeq;noise_LA_min;noise_LA_max;noise_LA01;noise_LA95
76767;Laerm;65707;52.362;6.588;2024-03-17T00:01:09;43.83;37.61;59.46;;
76767;Laerm;65707;52.362;6.588;2024-03-17T00:03:37;49.38;38.36;66.86;;
76767;Laerm;65707;52.362;6.588;2024-03-17T00:06:04;60.37;38.85;79.46;;
76767;Laerm;65707;52.362;6.588;2024-03-17T00:08:31;40.45;37.49;46.42;;
76767;Laerm;65707;52.362;6.588;2024-03-17T00:10:57;41.57;36.41;61.70;;
76767;Laerm;65707;52.362;6.588;2024-03-17T00:13:24;41.55;36.47;51.57;;
76767;Laerm;65707;52.362;6.588;2024-03-17T00:15:50;42.18;37.44;54.46;;
76767;Laerm;65707;52.362;6.588;2024-03-17T00:18:17;41.94;36.40;59.50;;
76767;Laerm;65707;52.362;6.588;2024-03-17T00:20:43;40.42;36.68;52.30;;
76767;Laerm;65707;52.362;6.588;2024-03-17T00:23:12;63.29;38.51;81.22;;
76767;Laerm;65707;52.362;6.588;2024-03-17T00:25:38;42.39;38.12;54.80;;
76767;Laerm;65707;52.362;6.588;2024-03-17T00:28:06;41.35;38.11;49.45;;
76767;Laerm;65707;52.362;6.588;2024-03-17T00:30:31;40.86;37.07;53.11;;
76767;Laerm;65707;52.362;6.588;2024-03-17T00:32:58;41.32;37.63;50.43;;
76767;Laerm;65707;52.362;6.588;2024-03-17T00:35:25;58.07;36.71;77.01;;
76767;Laerm;65707;52.362;6.588;2024-03-17T00:37:52;60.44;37.28;79.41;;
76767;Laerm;65707;52.362;6.588;2024-03-17T00:40:20;44.76;37.58;56.56;;
76767;Laerm;65707;52.362;6.588;2024-03-17T00:42:47;58.21;37.19;77.29;;
76767;Laerm;65707;52.362;6.588;2024-03-17T00:45:13;47.11;38.20;59.53;;
76767;Laerm;65707;52.362;6.588;2024-03-17T00:47:40;40.40;37.06;45.33;;
76767;Laerm;65707;52.362;6.588;2024-03-17T00:50:07;42.08;38.30;50.40;;
76767;Laerm;65707;52.362;6.588;2024-03-17T00:52:34;41.89;37.24;54.94;;
76767;Laerm;65707;52.362;6.588;2024-03-17T00:55:00;41.36;36.65;53.82;;
76767;Laerm;65707;52.362;6.588;2024-03-17T00:57:28;39.62;36.51;42.48;;
76767;Laerm;65707;52.362;6.588;2024-03-17T00:59:54;40.71;37.56;52.67;;
76767;Laerm;65707;52.362;6.588;2024-03-17T01:02:21;44.02;37.40;60.99;;
76767;Laerm;65707;52.362;6.588;2024-03-17T01:04:48;39.76;35.75;46.83;;
76767;Laerm;65707;52.362;6.588;2024-03-17T01:07:14;39.44;35.63;42.43;;
76767;Laerm;65707;52.362;6.588;2024-03-17T01:09:41;40.30;36.56;45.29;;
76767;Laerm;65707;52.362;6.588;2024-03-17T01:12:06;39.67;35.63;44.02;;
76767;Laerm;65707;52.362;6.588;2024-03-17T01:14:34;42.90;37.80;62.04;;
76767;Laerm;65707;52.362;6.588;2024-03-17T01:17:01;39.63;36.16;42.43;;
76767;Laerm;65707;52.362;6.588;2024-03-17T01:19:30;40.25;36.34;46.58;;
76767;Laerm;65707;52.362;6.588;2024-03-17T01:21:56;40.44;36.55;53.01;;
76767;Laerm;65707;52.362;6.588;2024-03-17T01:24:23;40.16;36.83;47.06;;
76767;Laerm;65707;52.362;6.588;2024-03-17T01:26:50;43.71;38.43;58.93;;
76767;Laerm;65707;52.362;6.588;2024-03-17T01:29:16;40.39;37.75;45.72;;
76767;Laerm;65707;52.362;6.588;2024-03-17T01:31:44;40.74;36.88;51.80;;
76767;Laerm;65707;52.362;6.588;2024-03-17T01:34:10;41.57;38.20;48.32;;
76767;Laerm;65707;52.362;6.588;2024-03-17T01:36:36;40.55;36.43;45.74;;
76767;Laerm;65707;52.362;6.588;2024-03-17T01:39:03;41.02;36.72;49.11;;
76767;Laerm;65707;52.362;6.588;2024-03-17T01:41:29;42.93;37.38;54.30;;
76767;Laerm;65707;52.362;6.588;2024-03-17T01:43:57;40.30;37.11;51.56;;
76767;Laerm;65707;52.362;6.588;2024-03-17T01:46:24;40.77;35.96;50.83;;
76767;Laerm;65707;52.362;6.588;2024-03-17T01:48:53;40.83;37.47;50.31;;
76767;Laerm;65707;52.362;6.588;2024-03-17T01:51:19;40.12;37.35;53.58;;
76767;Laerm;65707;52.362;6.588;2024-03-17T01:53:48;40.80;37.29;47.25;;
76767;Laerm;65707;52.362;6.588;2024-03-17T01:56:16;41.41;37.52;54.16;;
76767;Laerm;65707;52.362;6.588;2024-03-17T01:58:44;41.13;37.94;49.06;;
76767;Laerm;65707;52.362;6.588;2024-03-17T02:01:11;41.24;37.30;51.42;;
76767;Laerm;65707;52.362;6.588;2024-03-17T02:03:40;41.34;37.43;51.52;;
76767;Laerm;65707;52.362;6.588;2024-03-17T02:06:07;39.90;37.56;46.43;;
76767;Laerm;65707;52.362;6.588;2024-03-17T02:08:47;40.20;36.25;45.87;;
76767;Laerm;65707;52.362;6.588;2024-03-17T02:11:25;39.45;37.10;42.50;;
76767;Laerm;65707;52.362;6.588;2024-03-17T02:13:53;40.87;38.39;47.67;;
76767;Laerm;65707;52.362;6.588;2024-03-17T02:16:19;40.21;37.89;54.17;;
76767;Laerm;65707;52.362;6.588;2024-03-17T02:18:46;39.76;37.76;47.82;;
76767;Laerm;65707;52.362;6.588;2024-03-17T02:21:14;41.48;36.75;54.80;;
76767;Laerm;65707;52.362;6.588;2024-03-17T02:23:43;39.75;35.85;43.44;;
76767;Laerm;65707;52.362;6.588;2024-03-17T02:26:09;39.70;37.56;47.20;;
76767;Laerm;65707;52.362;6.588;2024-03-17T02:28:40;40.51;36.63;49.28;;
76767;Laerm;65707;52.362;6.588;2024-03-17T02:31:08;41.25;38.14;57.18;;
76767;Laerm;65707;52.362;6.588;2024-03-17T02:33:36;40.11;37.44;44.67;;
76767;Laerm;65707;52.362;6.588;2024-03-17T02:36:02;39.76;36.61;44.03;;
76767;Laerm;65707;52.362;6.588;2024-03-17T02:38:33;39.90;37.67;45.11;;
76767;Laerm;65707;52.362;6.588;2024-03-17T02:41:19;39.50;37.58;47.37;;
76767;Laerm;65707;52.362;6.588;2024-03-17T02:43:46;39.95;36.70;49.43;;
76767;Laerm;65707;52.362;6.588;2024-03-17T02:46:13;39.68;35.49;44.84;;
76767;Laerm;65707;52.362;6.588;2024-03-17T02:48:41;40.42;37.03;50.49;;
76767;Laerm;65707;52.362;6.588;2024-03-17T02:51:11;40.84;37.02;50.48;;
76767;Laerm;65707;52.362;6.588;2024-03-17T02:53:40;39.86;35.55;46.40;;
76767;Laerm;65707;52.362;6.588;2024-03-17T02:56:07;40.21;36.49;49.63;;
76767;Laerm;65707;52.362;6.588;2024-03-17T02:58:35;41.64;36.76;53.80;;
76767;Laerm;65707;52.362;6.588;2024-03-17T03:01:03;41.66;36.29;51.68;;
76767;Laerm;65707;52.362;6.588;2024-03-17T03:03:30;39.84;34.43;47.35;;
76767;Laerm;65707;52.362;6.588;2024-03-17T03:05:57;43.81;37.71;59.42;;
76767;Laerm;65707;52.362;6.588;2024-03-17T03:08:26;40.34;37.50;46.90;;
76767;Laerm;65707;52.362;6.588;2024-03-17T03:10:53;40.78;38.00;46.01;;
76767;Laerm;65707;52.362;6.588;2024-03-17T03:13:19;39.58;34.97;43.18;;
76767;Laerm;65707;52.362;6.588;2024-03-17T03:15:48;39.20;37.22;43.00;;
76767;Laerm;65707;52.362;6.588;2024-03-17T03:18:15;39.79;35.67;44.79;;
76767;Laerm;65707;52.362;6.588;2024-03-17T03:20:42;40.35;36.11;49.21;;
76767;Laerm;65707;52.362;6.588;2024-03-17T03:23:09;39.56;34.14;43.98;;
76767;Laerm;65707;52.362;6.588;2024-03-17T03:25:37;39.51;37.24;45.27;;
76767;Laerm;65707;52.362;6.588;2024-03-17T03:28:04;40.07;37.66;47.94;;
76767;Laerm;65707;52.362;6.588;2024-03-17T03:30:31;40.81;36.49;51.17;;
76767;Laerm;65707;52.362;6.588;2024-03-17T03:33:03;40.55;37.15;46.40;;
76767;Laerm;65707;52.362;6.588;2024-03-17T03:35:31;41.28;35.69;53.95;;
76767;Laerm;65707;52.362;6.588;2024-03-17T03:37:58;39.89;36.72;47.43;;
76767;Laerm;65707;52.362;6.588;2024-03-17T03:40:26;39.58;36.41;48.49;;
76767;Laerm;65707;52.362;6.588;2024-03-17T03:42:53;40.06;34.33;49.38;;
76767;Laerm;65707;52.362;6.588;2024-03-17T03:45:19;39.39;36.60;47.21;;
76767;Laerm;65707;52.362;6.588;2024-03-17T03:47:46;40.85;37.57;51.72;;
76767;Laerm;65707;52.362;6.588;2024-03-17T03:50:19;40.43;37.97;49.65;;
76767;Laerm;65707;52.362;6.588;2024-03-17T03:52:46;40.16;36.97;51.26;;
76767;Laerm;65707;52.362;6.588;2024-03-17T03:55:15;42.04;36.96;57.56;;
76767;Laerm;65707;52.362;6.588;2024-03-17T03:57:42;42.62;37.04;56.43;;
76767;Laerm;65707;52.362;6.588;2024-03-17T04:00:12;43.70;37.29;56.19;;
76767;Laerm;65707;52.362;6.588;2024-03-17T04:02:40;42.38;37.29;53.62;;
76767;Laerm;65707;52.362;6.588;2024-03-17T04:05:07;44.15;38.45;53.99;;
76767;Laerm;65707;52.362;6.588;2024-03-17T04:07:36;42.80;37.84;52.87;;
76767;Laerm;65707;52.362;6.588;2024-03-17T04:10:04;43.32;37.11;53.58;;
76767;Laerm;65707;52.362;6.588;2024-03-17T04:12:31;42.01;37.84;52.27;;
76767;Laerm;65707;52.362;6.588;2024-03-17T04:14:58;42.01;36.59;55.07;;
76767;Laerm;65707;52.362;6.588;2024-03-17T04:17:25;42.73;37.67;55.44;;
76767;Laerm;65707;52.362;6.588;2024-03-17T04:19:53;42.98;36.08;54.27;;
76767;Laerm;65707;52.362;6.588;2024-03-17T04:22:22;43.17;38.16;55.14;;
76767;Laerm;65707;52.362;6.588;2024-03-17T04:24:51;44.44;38.47;55.48;;
76767;Laerm;65707;52.362;6.588;2024-03-17T04:27:19;45.04;38.86;55.88;;
76767;Laerm;65707;52.362;6.588;2024-03-17T04:29:46;44.59;35.99;56.77;;
76767;Laerm;65707;52.362;6.588;2024-03-17T04:32:13;44.61;38.00;56.65;;
76767;Laerm;65707;52.362;6.588;2024-03-17T04:34:40;43.77;38.40;55.98;;
76767;Laerm;65707;52.362;6.588;2024-03-17T04:37:08;43.62;37.69;55.49;;
76767;Laerm;65707;52.362;6.588;2024-03-17T04:39:36;42.88;36.44;54.87;;
76767;Laerm;65707;52.362;6.588;2024-03-17T04:42:06;43.55;36.17;59.05;;
76767;Laerm;65707;52.362;6.588;2024-03-17T04:44:33;43.34;37.55;56.05;;
76767;Laerm;65707;52.362;6.588;2024-03-17T04:46:59;44.88;38.24;58.15;;
76767;Laerm;65707;52.362;6.588;2024-03-17T04:49:26;44.62;38.73;60.45;;
76767;Laerm;65707;52.362;6.588;2024-03-17T04:51:53;46.78;39.41;59.21;;
76767;Laerm;65707;52.362;6.588;2024-03-17T04:54:20;45.87;38.33;59.37;;
76767;Laerm;65707;52.362;6.588;2024-03-17T04:56:47;45.78;38.75;59.17;;
76767;Laerm;65707;52.362;6.588;2024-03-17T04:59:15;46.71;39.44;60.70;;
76767;Laerm;65707;52.362;6.588;2024-03-17T05:01:40;48.00;39.88;57.45;;
76767;Laerm;65707;52.362;6.588;2024-03-17T05:04:07;46.70;38.40;59.37;;
76767;Laerm;65707;52.362;6.588;2024-03-17T05:06:34;47.08;38.44;62.60;;
76767;Laerm;65707;52.362;6.588;2024-03-17T05:09:01;45.21;38.89;60.66;;
76767;Laerm;65707;52.362;6.588;2024-03-17T05:11:30;46.80;39.23;59.08;;
76767;Laerm;65707;52.362;6.588;2024-03-17T05:13:58;44.49;37.80;58.27;;
76767;Laerm;65707;52.362;6.588;2024-03-17T05:16:26;44.71;38.55;57.24;;
76767;Laerm;65707;52.362;6.588;2024-03-17T05:18:54;44.47;38.83;54.30;;
76767;Laerm;65707;52.362;6.588;2024-03-17T05:21:21;44.41;38.92;57.48;;
76767;Laerm;65707;52.362;6.588;2024-03-17T05:23:49;45.26;38.66;57.10;;
76767;Laerm;65707;52.362;6.588;2024-03-17T05:26:16;45.66;38.59;57.48;;
76767;Laerm;65707;52.362;6.588;2024-03-17T05:28:43;44.74;38.42;56.35;;
76767;Laerm;65707;52.362;6.588;2024-03-17T05:31:10;45.76;39.49;62.99;;
76767;Laerm;65707;52.362;6.588;2024-03-17T05:33:41;44.98;39.28;57.29;;
76767;Laerm;65707;52.362;6.588;2024-03-17T05:36:08;45.35;39.59;57.69;;
76767;Laerm;65707;52.362;6.588;2024-03-17T05:38:35;46.09;40.21;54.46;;
76767;Laerm;65707;52.362;6.588;2024-03-17T05:41:04;45.10;40.37;53.79;;
76767;Laerm;65707;52.362;6.588;2024-03-17T05:43:32;45.87;39.86;57.70;;
76767;Laerm;65707;52.362;6.588;2024-03-17T05:46:02;45.73;40.41;62.05;;
76767;Laerm;65707;52.362;6.588;2024-03-17T05:48:31;50.00;39.65;68.01;;
76767;Laerm;65707;52.362;6.588;2024-03-17T05:51:01;45.16;39.45;53.44;;
76767;Laerm;65707;52.362;6.588;2024-03-17T05:53:28;45.67;39.50;59.47;;
76767;Laerm;65707;52.362;6.588;2024-03-17T05:55:58;43.80;38.66;54.83;;
76767;Laerm;65707;52.362;6.588;2024-03-17T05:58:25;46.20;39.63;67.10;;
76767;Laerm;65707;52.362;6.588;2024-03-17T06:00:53;45.69;38.04;57.14;;
76767;Laerm;65707;52.362;6.588;2024-03-17T06:03:20;46.73;38.50;66.60;;
76767;Laerm;65707;52.362;6.588;2024-03-17T06:05:47;44.58;38.84;56.10;;
76767;Laerm;65707;52.362;6.588;2024-03-17T06:08:16;43.82;38.66;56.85;;
76767;Laerm;65707;52.362;6.588;2024-03-17T06:10:45;54.13;39.23;69.89;;
76767;Laerm;65707;52.362;6.588;2024-03-17T06:13:12;44.52;38.92;55.61;;
76767;Laerm;65707;52.362;6.588;2024-03-17T06:15:41;43.87;39.41;51.12;;
76767;Laerm;65707;52.362;6.588;2024-03-17T06:18:10;45.46;40.28;54.52;;
76767;Laerm;65707;52.362;6.588;2024-03-17T06:20:40;44.65;39.52;53.22;;
76767;Laerm;65707;52.362;6.588;2024-03-17T06:23:09;51.09;39.55;71.35;;
76767;Laerm;65707;52.362;6.588;2024-03-17T06:25:40;45.93;39.81;67.70;;
76767;Laerm;65707;52.362;6.588;2024-03-17T06:28:07;43.79;39.15;52.96;;
76767;Laerm;65707;52.362;6.588;2024-03-17T06:30:34;44.84;39.96;55.93;;
76767;Laerm;65707;52.362;6.588;2024-03-17T06:33:03;45.38;39.78;55.45;;
76767;Laerm;65707;52.362;6.588;2024-03-17T06:35:30;56.85;39.69;80.47;;
76767;Laerm;65707;52.362;6.588;2024-03-17T06:37:59;45.21;38.08;59.98;;
76767;Laerm;65707;52.362;6.588;2024-03-17T06:40:27;63.60;39.52;81.43;;
76767;Laerm;65707;52.362;6.588;2024-03-17T06:42:55;45.23;40.53;56.91;;
76767;Laerm;65707;52.362;6.588;2024-03-17T06:45:22;45.87;39.98;58.82;;
76767;Laerm;65707;52.362;6.588;2024-03-17T06:47:49;44.84;39.62;54.98;;
76767;Laerm;65707;52.362;6.588;2024-03-17T06:50:16;46.87;41.51;58.72;;
76767;Laerm;65707;52.362;6.588;2024-03-17T06:52:43;46.18;40.08;59.13;;
76767;Laerm;65707;52.362;6.588;2024-03-17T06:55:09;62.25;40.35;81.60;;
76767;Laerm;65707;52.362;6.588;2024-03-17T06:57:38;45.11;40.67;53.91;;
76767;Laerm;65707;52.362;6.588;2024-03-17T07:00:12;54.76;40.22;75.01;;
76767;Laerm;65707;52.362;6.588;2024-03-17T07:02:40;47.00;40.12;68.39;;
76767;Laerm;65707;52.362;6.588;2024-03-17T07:05:12;57.30;39.78;74.52;;
76767;Laerm;65707;52.362;6.588;2024-03-17T07:07:40;64.55;40.63;83.08;;
76767;Laerm;65707;52.362;6.588;2024-03-17T07:10:08;44.33;39.66;59.69;;
76767;Laerm;65707;52.362;6.588;2024-03-17T07:12:36;65.21;41.56;82.49;;
76767;Laerm;65707;52.362;6.588;2024-03-17T07:15:04;47.71;40.75;64.49;;
76767;Laerm;65707;52.362;6.588;2024-03-17T07:17:33;44.49;39.50;53.54;;
76767;Laerm;65707;52.362;6.588;2024-03-17T07:20:00;46.24;41.14;54.59;;
76767;Laerm;65707;52.362;6.588;2024-03-17T07:22:27;46.87;41.60;60.08;;
76767;Laerm;65707;52.362;6.588;2024-03-17T07:24:55;56.88;41.16;75.35;;
76767;Laerm;65707;52.362;6.588;2024-03-17T07:27:25;45.90;41.79;58.02;;
76767;Laerm;65707;52.362;6.588;2024-03-17T07:29:52;53.17;40.00;73.12;;
76767;Laerm;65707;52.362;6.588;2024-03-17T07:32:19;44.32;39.93;55.64;;
76767;Laerm;65707;52.362;6.588;2024-03-17T07:34:47;45.22;39.18;55.84;;
76767;Laerm;65707;52.362;6.588;2024-03-17T07:37:15;47.23;40.61;63.77;;
76767;Laerm;65707;52.362;6.588;2024-03-17T07:39:42;65.20;40.09;83.06;;
76767;Laerm;65707;52.362;6.588;2024-03-17T07:42:09;57.74;41.08;77.32;;
76767;Laerm;65707;52.362;6.588;2024-03-17T07:44:35;46.75;39.28;64.23;;
76767;Laerm;65707;52.362;6.588;2024-03-17T07:47:03;47.60;40.08;64.30;;
76767;Laerm;65707;52.362;6.588;2024-03-17T07:49:30;63.62;40.26;83.00;;
76767;Laerm;65707;52.362;6.588;2024-03-17T07:51:58;57.46;40.39;81.79;;
76767;Laerm;65707;52.362;6.588;2024-03-17T07:54:25;55.84;40.64;74.28;;
76767;Laerm;65707;52.362;6.588;2024-03-17T07:56:52;44.88;40.08;57.65;;
76767;Laerm;65707;52.362;6.588;2024-03-17T07:59:20;45.64;39.83;59.99;;
76767;Laerm;65707;52.362;6.588;2024-03-17T08:01:47;55.76;40.91;74.73;;
76767;Laerm;65707;52.362;6.588;2024-03-17T08:04:13;46.61;39.49;63.39;;
76767;Laerm;65707;52.362;6.588;2024-03-17T08:06:40;45.09;39.40;57.28;;
76767;Laerm;65707;52.362;6.588;2024-03-17T08:09:08;46.19;39.54;60.66;;
76767;Laerm;65707;52.362;6.588;2024-03-17T08:11:35;64.57;41.59;82.26;;
76767;Laerm;65707;52.362;6.588;2024-03-17T08:14:03;48.74;41.42;67.07;;
76767;Laerm;65707;52.362;6.588;2024-03-17T08:16:31;47.00;40.87;54.86;;
76767;Laerm;65707;52.362;6.588;2024-03-17T08:18:58;64.41;40.81;83.08;;
76767;Laerm;65707;52.362;6.588;2024-03-17T08:21:25;48.34;40.12;59.56;;
76767;Laerm;65707;52.362;6.588;2024-03-17T08:23:54;56.67;39.64;74.43;;
76767;Laerm;65707;52.362;6.588;2024-03-17T08:26:22;50.15;40.13;71.56;;
76767;Laerm;65707;52.362;6.588;2024-03-17T08:28:49;45.63;39.05;62.36;;
76767;Laerm;65707;52.362;6.588;2024-03-17T08:31:15;52.83;39.17;69.33;;
76767;Laerm;65707;52.362;6.588;2024-03-17T08:33:42;44.78;39.40;58.97;;
76767;Laerm;65707;52.362;6.588;2024-03-17T08:36:09;47.11;38.56;64.54;;
76767;Laerm;65707;52.362;6.588;2024-03-17T08:38:37;45.83;39.65;57.14;;
76767;Laerm;65707;52.362;6.588;2024-03-17T08:41:06;64.57;40.84;80.83;;
76767;Laerm;65707;52.362;6.588;2024-03-17T08:43:35;46.16;40.01;56.11;;
76767;Laerm;65707;52.362;6.588;2024-03-17T08:46:04;48.05;39.51;59.49;;
76767;Laerm;65707;52.362;6.588;2024-03-17T08:48:33;46.52;39.69;58.29;;
76767;Laerm;65707;52.362;6.588;2024-03-17T08:51:02;63.99;39.66;82.84;;
76767;Laerm;65707;52.362;6.588;2024-03-17T08:53:29;56.88;39.80;74.72;;
76767;Laerm;65707;52.362;6.588;2024-03-17T08:55:57;45.88;38.84;56.28;;
76767;Laerm;65707;52.362;6.588;2024-03-17T08:58:25;44.84;38.81;55.22;;
76767;Laerm;65707;52.362;6.588;2024-03-17T09:00:53;55.42;37.77;74.62;;
76767;Laerm;65707;52.362;6.588;2024-03-17T09:03:22;46.33;38.44;61.16;;
76767;Laerm;65707;52.362;6.588;2024-03-17T09:05:49;50.71;38.77;72.56;;
76767;Laerm;65707;52.362;6.588;2024-03-17T09:08:22;60.69;38.59;86.83;;
76767;Laerm;65707;52.362;6.588;2024-03-17T09:10:51;63.68;39.00;81.24;;
76767;Laerm;65707;52.362;6.588;2024-03-17T09:13:19;48.68;38.30;67.27;;
76767;Laerm;65707;52.362;6.588;2024-03-17T09:15:55;44.51;38.24;53.46;;
76767;Laerm;65707;52.362;6.588;2024-03-17T09:18:22;46.94;38.24;62.04;;
76767;Laerm;65707;52.362;6.588;2024-03-17T09:20:57;61.37;40.28;80.23;;
76767;Laerm;65707;52.362;6.588;2024-03-17T09:23:24;53.11;38.98;71.98;;
76767;Laerm;65707;52.362;6.588;2024-03-17T09:25:59;52.06;38.62;74.57;;
76767;Laerm;65707;52.362;6.588;2024-03-17T09:28:26;46.36;37.03;58.52;;
76767;Laerm;65707;52.362;6.588;2024-03-17T09:30:55;54.22;38.96;73.35;;
76767;Laerm;65707;52.362;6.588;2024-03-17T09:33:24;45.98;37.89;57.34;;
76767;Laerm;65707;52.362;6.588;2024-03-17T09:35:55;48.58;37.43;65.66;;
76767;Laerm;65707;52.362;6.588;2024-03-17T09:38:23;49.21;37.93;67.96;;
76767;Laerm;65707;52.362;6.588;2024-03-17T09:40:51;63.37;38.61;80.60;;
76767;Laerm;65707;52.362;6.588;2024-03-17T09:43:19;45.71;38.16;56.51;;
76767;Laerm;65707;52.362;6.588;2024-03-17T09:45:47;45.95;40.04;60.91;;
76767;Laerm;65707;52.362;6.588;2024-03-17T09:48:17;45.61;39.35;61.09;;
76767;Laerm;65707;52.362;6.588;2024-03-17T09:50:51;63.01;37.92;82.95;;
76767;Laerm;65707;52.362;6.588;2024-03-17T09:53:24;57.23;39.53;75.72;;
76767;Laerm;65707;52.362;6.588;2024-03-17T09:55:52;46.00;38.76;60.24;;
76767;Laerm;65707;52.362;6.588;2024-03-17T09:58:19;47.75;39.01;62.02;;
76767;Laerm;65707;52.362;6.588;2024-03-17T10:00:46;55.10;39.54;73.06;;
76767;Laerm;65707;52.362;6.588;2024-03-17T10:03:41;46.71;38.43;64.05;;
76767;Laerm;65707;52.362;6.588;2024-03-17T10:06:10;47.04;40.46;60.01;;
76767;Laerm;65707;52.362;6.588;2024-03-17T10:08:43;45.87;39.30;55.59;;
76767;Laerm;65707;52.362;6.588;2024-03-17T10:11:10;65.62;40.59;82.27;;
76767;Laerm;65707;52.362;6.588;2024-03-17T10:13:38;46.70;37.54;58.78;;
76767;Laerm;65707;52.362;6.588;2024-03-17T10:16:05;48.34;38.85;62.93;;
76767;Laerm;65707;52.362;6.588;2024-03-17T10:18:33;48.37;38.64;62.42;;
76767;Laerm;65707;52.362;6.588;2024-03-17T10:21:00;63.50;40.29;82.08;;
76767;Laerm;65707;52.362;6.588;2024-03-17T10:23:27;46.98;37.47;70.85;;
76767;Laerm;65707;52.362;6.588;2024-03-17T10:25:54;55.98;38.82;74.74;;
76767;Laerm;65707;52.362;6.588;2024-03-17T10:28:21;49.14;39.52;64.65;;
76767;Laerm;65707;52.362;6.588;2024-03-17T10:30:58;53.57;39.72;71.45;;
76767;Laerm;65707;52.362;6.588;2024-03-17T10:33:26;44.75;37.81;57.16;;
76767;Laerm;65707;52.362;6.588;2024-03-17T10:36:02;47.40;38.04;60.72;;
76767;Laerm;65707;52.362;6.588;2024-03-17T10:38:31;49.15;39.40;60.42;;
76767;Laerm;65707;52.362;6.588;2024-03-17T10:41:00;64.22;38.43;81.92;;
76767;Laerm;65707;52.362;6.588;2024-03-17T10:43:28;47.27;40.10;66.12;;
76767;Laerm;65707;52.362;6.588;2024-03-17T10:45:58;47.78;39.22;67.26;;
76767;Laerm;65707;52.362;6.588;2024-03-17T10:48:31;50.99;39.66;71.30;;
76767;Laerm;65707;52.362;6.588;2024-03-17T10:51:01;65.31;39.13;85.37;;
76767;Laerm;65707;52.362;6.588;2024-03-17T10:53:30;56.90;39.32;74.46;;
76767;Laerm;65707;52.362;6.588;2024-03-17T10:56:05;46.16;37.62;63.54;;
76767;Laerm;65707;52.362;6.588;2024-03-17T10:58:35;47.33;37.85;62.05;;
76767;Laerm;65707;52.362;6.588;2024-03-17T11:01:03;54.95;39.99;75.87;;
76767;Laerm;65707;52.362;6.588;2024-03-17T11:03:32;55.05;43.33;66.94;;
76767;Laerm;65707;52.362;6.588;2024-03-17T11:06:03;55.36;40.84;68.39;;
76767;Laerm;65707;52.362;6.588;2024-03-17T11:08:32;47.97;39.10;70.54;;
76767;Laerm;65707;52.362;6.588;2024-03-17T11:11:00;64.72;39.50;82.01;;
76767;Laerm;65707;52.362;6.588;2024-03-17T11:13:31;48.47;38.47;60.88;;
76767;Laerm;65707;52.362;6.588;2024-03-17T11:15:59;47.15;38.97;62.64;;
76767;Laerm;65707;52.362;6.588;2024-03-17T11:18:35;46.05;39.11;57.24;;
76767;Laerm;65707;52.362;6.588;2024-03-17T11:21:05;62.16;41.64;82.25;;
76767;Laerm;65707;52.362;6.588;2024-03-17T11:23:37;56.15;40.00;74.25;;
76767;Laerm;65707;52.362;6.588;2024-03-17T11:26:06;46.05;39.63;62.92;;
76767;Laerm;65707;52.362;6.588;2024-03-17T11:28:48;47.01;39.86;62.83;;
76767;Laerm;65707;52.362;6.588;2024-03-17T11:31:45;54.02;41.24;72.45;;
76767;Laerm;65707;52.362;6.588;2024-03-17T11:34:32;49.68;38.79;69.88;;
76767;Laerm;65707;52.362;6.588;2024-03-17T11:37:02;50.79;40.73;63.97;;
76767;Laerm;65707;52.362;6.588;2024-03-17T11:39:48;54.97;39.36;78.10;;
76767;Laerm;65707;52.362;6.588;2024-03-17T11:42:15;62.80;39.51;79.96;;
76767;Laerm;65707;52.362;6.588;2024-03-17T11:44:43;47.67;39.99;65.29;;
76767;Laerm;65707;52.362;6.588;2024-03-17T11:47:10;49.67;41.14;70.68;;
76767;Laerm;65707;52.362;6.588;2024-03-17T11:49:40;47.75;40.21;70.27;;
76767;Laerm;65707;52.362;6.588;2024-03-17T11:52:12;55.53;41.36;75.36;;
76767;Laerm;65707;52.362;6.588;2024-03-17T11:54:42;63.07;39.69;81.96;;
76767;Laerm;65707;52.362;6.588;2024-03-17T11:57:10;47.25;39.56;70.52;;
76767;Laerm;65707;52.362;6.588;2024-03-17T11:59:38;54.99;41.74;73.64;;
76767;Laerm;65707;52.362;6.588;2024-03-17T12:02:17;53.48;40.32;72.23;;
76767;Laerm;65707;52.362;6.588;2024-03-17T12:04:44;50.50;42.17;63.76;;
76767;Laerm;65707;52.362;6.588;2024-03-17T12:07:14;48.74;41.91;65.35;;
76767;Laerm;65707;52.362;6.588;2024-03-17T12:09:42;48.52;39.08;68.46;;
76767;Laerm;65707;52.362;6.588;2024-03-17T12:12:11;64.76;42.41;81.76;;
76767;Laerm;65707;52.362;6.588;2024-03-17T12:14:39;48.11;40.54;61.27;;
76767;Laerm;65707;52.362;6.588;2024-03-17T12:17:09;47.60;39.79;57.33;;
76767;Laerm;65707;52.362;6.588;2024-03-17T12:19:36;61.83;40.91;82.61;;
76767;Laerm;65707;52.362;6.588;2024-03-17T12:22:05;58.90;42.13;81.33;;
76767;Laerm;65707;52.362;6.588;2024-03-17T12:24:34;57.70;42.66;75.81;;
76767;Laerm;65707;52.362;6.588;2024-03-17T12:27:04;48.35;40.82;67.02;;
76767;Laerm;65707;52.362;6.588;2024-03-17T12:29:32;54.13;40.78;70.66;;
76767;Laerm;65707;52.362;6.588;2024-03-17T12:32:04;52.91;40.84;67.47;;
76767;Laerm;65707;52.362;6.588;2024-03-17T12:34:33;49.23;40.42;72.14;;
76767;Laerm;65707;52.362;6.588;2024-03-17T12:37:01;48.26;40.34;62.30;;
76767;Laerm;65707;52.362;6.588;2024-03-17T12:39:29;48.90;40.66;70.04;;
76767;Laerm;65707;52.362;6.588;2024-03-17T12:42:06;65.47;43.00;83.25;;
76767;Laerm;65707;52.362;6.588;2024-03-17T12:44:34;46.96;39.50;68.71;;
76767;Laerm;65707;52.362;6.588;2024-03-17T12:47:03;47.50;39.67;62.42;;
76767;Laerm;65707;52.362;6.588;2024-03-17T12:49:31;48.36;39.33;70.12;;
76767;Laerm;65707;52.362;6.588;2024-03-17T12:52:00;62.49;41.95;80.71;;
76767;Laerm;65707;52.362;6.588;2024-03-17T12:54:29;56.55;40.47;73.69;;
76767;Laerm;65707;52.362;6.588;2024-03-17T12:57:07;48.26;40.62;68.04;;
76767;Laerm;65707;52.362;6.588;2024-03-17T12:59:57;55.95;41.29;74.65;;
76767;Laerm;65707;52.362;6.588;2024-03-17T13:02:42;49.21;42.23;59.93;;
76767;Laerm;65707;52.362;6.588;2024-03-17T13:05:17;47.67;41.52;57.66;;
76767;Laerm;65707;52.362;6.588;2024-03-17T13:07:47;47.37;40.02;60.25;;
76767;Laerm;65707;52.362;6.588;2024-03-17T13:10:14;63.31;41.48;81.22;;
76767;Laerm;65707;52.362;6.588;2024-03-17T13:12:43;57.81;41.65;76.48;;
76767;Laerm;65707;52.362;6.588;2024-03-17T13:15:13;46.70;39.58;59.37;;
76767;Laerm;65707;52.362;6.588;2024-03-17T13:17:41;45.83;39.32;64.95;;
76767;Laerm;65707;52.362;6.588;2024-03-17T13:20:13;64.59;39.18;83.65;;
76767;Laerm;65707;52.362;6.588;2024-03-17T13:22:41;51.28;40.72;71.78;;
76767;Laerm;65707;52.362;6.588;2024-03-17T13:25:14;56.62;40.33;75.17;;
76767;Laerm;65707;52.362;6.588;2024-03-17T13:27:43;52.98;40.56;79.36;;
76767;Laerm;65707;52.362;6.588;2024-03-17T13:30:11;55.24;42.35;73.57;;
76767;Laerm;65707;52.362;6.588;2024-03-17T13:32:38;48.72;42.45;60.12;;
76767;Laerm;65707;52.362;6.588;2024-03-17T13:35:06;49.34;41.63;63.08;;
76767;Laerm;65707;52.362;6.588;2024-03-17T13:37:34;49.96;40.50;66.52;;
76767;Laerm;65707;52.362;6.588;2024-03-17T13:40:04;62.98;41.03;80.35;;
76767;Laerm;65707;52.362;6.588;2024-03-17T13:42:31;57.24;42.24;76.24;;
76767;Laerm;65707;52.362;6.588;2024-03-17T13:45:00;50.31;42.30;71.37;;
76767;Laerm;65707;52.362;6.588;2024-03-17T13:47:28;47.39;40.86;61.40;;
76767;Laerm;65707;52.362;6.588;2024-03-17T13:49:55;64.12;40.69;83.23;;
76767;Laerm;65707;52.362;6.588;2024-03-17T13:52:22;50.99;41.76;65.37;;